Impacts TAF Board
For situational awareness. Not to be used for flight planning purposes.
IDs:

KHOU - Houston/Hobby Arpt, TX, US

Issued at 0520 UTC 19 Aug 2019
Updated at 0531 UTC 19 Aug 2019
Potential Impact None Slight Moderate High
Time0453Z 19/06Z 19/07Z 19/08Z 19/09Z 19/10Z 19/11Z 19/12Z 19/13Z 19/14Z 19/15Z 19/16Z 19/17Z 19/18Z>>
Type OBS PRVL PRVL PRVL PRVL PRVL PRVL PRVL PRVL PRVL PRVL PRVL PRVL PRVL
VIS 10 >6 >6 >6 >6 >6 >6 >6 >6 >6 >6 >6 >6 >6
CIG -- -- -- -- -- -- -- -- -- -- -- -- -- --
Cover FEW FEW FEW FEW FEW FEW FEW FEW FEW SCT SCT SCT SCT SCT
FltCat VFR VFR VFR VFR VFR VFR VFR VFR VFR VFR VFR VFR VFR VFR
WX -- -- -- -- -- -- -- -- -- -- -- -- VCSH VCSH
WDir 170 170 170 170 170 170 170 170 170 210 210 210 190 190
WSpd 7 5 5 5 5 5 5 5 5 8 8 8 8 8
WGst -- -- -- -- -- -- -- -- -- -- -- -- -- --
Raw TAF
KHOU 190520Z 1906/2006 17005KT P6SM FEW025
  FM191400 21008KT P6SM SCT025
  FM191700 19008KT P6SM VCSH SCT040
  FM192300 17006KT P6SM FEW040


Raw METAR
KHOU 190453Z 17007KT 10SM FEW020 FEW120 28/25 A2993 RMK AO2 SLP140 T02830250 $
KHOU 190353Z 16006KT 10SM FEW250 28/24 A2993 RMK AO2 SLP140 T02830244 $
KHOU 190253Z 17009KT 10SM FEW250 29/24 A2992 RMK AO2 SLP134 T02890244 53010 $

METAR Board
Radar Display
Forecast Discussion
For situational awareness. Not to be used for flight planning purposes.